Time;durP1;ratioP1;P1;durP2;ratioP2;P2;SDS_P1;SDS_P2;PMS_P1;PMS_P2;Temp;Humidity;BMP_temperature;BMP_pressure;BME280_temperature;BME280_humidity;BME280_pressure;Samples;Min_cycle;Max_cycle;Signal;HPM_P1;HPM_P2
2022/01/18 00:00:47;;;;;;;45.45;6.63;;;;;;;7.29;100.00;103725.75;5017125;28;20729;-71
2022/01/18 00:03:14;;;;;;;53.42;7.47;;;;;;;7.22;100.00;103721.16;5030093;28;20049;-70
2022/01/18 00:05:39;;;;;;;52.90;8.20;;;;;;;7.10;100.00;103722.84;5037827;28;20125;-72
2022/01/18 00:08:05;;;;;;;47.30;7.05;;;;;;;7.19;100.00;103731.63;5036766;28;20049;-71
2022/01/18 00:10:32;;;;;;;54.53;7.57;;;;;;;7.19;100.00;103732.44;5036178;28;20041;-71
2022/01/18 00:15:54;;;;;;;58.78;10.38;;;;;;;7.16;100.00;103738.31;5035315;28;20328;-71
2022/01/18 00:18:19;;;;;;;46.30;7.82;;;;;;;7.05;100.00;103729.97;5032223;28;20048;-71
2022/01/18 00:21:09;;;;;;;46.35;7.22;;;;;;;7.01;100.00;103732.22;5033149;28;20045;-71
2022/01/18 00:23:37;;;;;;;59.42;7.88;;;;;;;6.94;100.00;103740.38;5034557;28;20041;-70
2022/01/18 00:26:04;;;;;;;61.42;9.27;;;;;;;6.93;100.00;103738.72;5033105;28;20455;-71
2022/01/18 00:28:31;;;;;;;50.95;9.35;;;;;;;6.93;100.00;103735.19;5034018;28;20132;-71
2022/01/18 00:36:10;;;;;;;55.50;8.82;;;;;;;6.85;100.00;103735.38;5033738;28;20052;-71
2022/01/18 00:38:47;;;;;;;38.17;8.88;;;;;;;6.91;100.00;103731.81;5033647;28;20094;-71
2022/01/18 00:41:15;;;;;;;43.38;7.32;;;;;;;6.97;100.00;103739.13;5033687;28;20051;-71
2022/01/18 00:43:42;;;;;;;47.67;8.25;;;;;;;7.02;100.00;103732.03;5032618;28;20603;-71
2022/01/18 00:46:07;;;;;;;58.20;9.02;;;;;;;6.96;100.00;103742.91;5034154;28;20045;-71
2022/01/18 00:48:35;;;;;;;53.00;9.43;;;;;;;6.87;100.00;103744.16;5034242;28;20048;-70
2022/01/18 00:51:03;;;;;;;44.08;8.82;;;;;;;6.88;100.00;103745.81;5014200;28;20415;-71
2022/01/18 00:53:32;;;;;;;37.63;8.70;;;;;;;6.85;100.00;103749.75;5013679;28;20481;-70
2022/01/18 00:58:29;;;;;;;48.75;8.82;;;;;;;7.04;100.00;103750.84;5011642;28;20045;-71
2022/01/18 01:00:54;;;;;;;55.75;9.40;;;;;;;7.07;100.00;103765.84;5014084;28;20123;-71
2022/01/18 01:03:20;;;;;;;47.38;8.90;;;;;;;7.09;100.00;103761.03;5023513;28;20048;-70
2022/01/18 01:05:45;;;;;;;54.13;8.13;;;;;;;7.05;100.00;103763.34;5027996;28;20417;-71
2022/01/18 01:08:11;;;;;;;52.63;8.93;;;;;;;7.07;100.00;103761.28;5027571;28;20041;-71
2022/01/18 01:10:36;;;;;;;55.05;9.63;;;;;;;7.04;100.00;103756.25;5012978;28;20045;-71
2022/01/18 01:13:02;;;;;;;50.15;9.05;;;;;;;7.06;100.00;103759.56;5027788;28;20093;-70
2022/01/18 01:15:29;;;;;;;45.17;8.38;;;;;;;7.11;100.00;103746.22;5012670;28;20068;-71
2022/01/18 01:35:03;;;;;;;62.20;10.10;;;;;;;7.04;100.00;103750.84;5016502;28;20049;-71
2022/01/18 01:42:54;;;;;;;64.53;9.88;;;;;;;6.92;100.00;103756.03;5016139;28;20096;-71
2022/01/18 01:45:16;;;;;;;54.53;9.93;;;;;;;6.98;100.00;103752.50;5015926;28;20140;-71
2022/01/18 01:47:46;;;;;;;56.10;9.98;;;;;;;6.84;100.00;103761.66;5017100;28;20045;-71
2022/01/18 01:50:17;;;;;;;59.55;10.13;;;;;;;6.88;100.00;103756.66;5029726;28;20044;-70
2022/01/18 01:52:43;;;;;;;71.95;12.07;;;;;;;6.89;100.00;103751.00;5037785;28;20517;-71
2022/01/18 01:55:09;;;;;;;52.97;11.77;;;;;;;6.90;100.00;103760.00;5037526;28;20124;-71
2022/01/18 01:57:34;;;;;;;68.30;10.65;;;;;;;6.93;100.00;103759.59;5035573;28;20127;-71
2022/01/18 02:00:05;;;;;;;65.93;11.23;;;;;;;6.97;100.00;103755.41;5036739;28;20059;-71
2022/01/18 02:02:30;;;;;;;54.22;11.75;;;;;;;6.91;100.00;103748.09;5029592;28;20443;-71
2022/01/18 02:04:59;;;;;;;63.88;10.85;;;;;;;6.85;100.00;103743.50;5017418;28;20591;-71
2022/01/18 02:07:24;;;;;;;64.90;10.35;;;;;;;6.92;100.00;103741.63;5015362;28;20037;-71
2022/01/18 02:09:50;;;;;;;61.38;13.07;;;;;;;6.97;100.00;103755.41;5016523;28;20545;-71
2022/01/18 02:12:19;;;;;;;66.68;11.30;;;;;;;6.96;100.00;103753.75;5016890;28;20489;-71
2022/01/18 02:14:53;;;;;;;60.78;11.63;;;;;;;6.99;100.00;103750.63;5016720;28;20041;-71
2022/01/18 02:22:49;;;;;;;65.22;10.77;;;;;;;7.05;100.00;103741.63;5017313;28;20080;-71
2022/01/18 02:25:15;;;;;;;59.30;10.32;;;;;;;7.03;100.00;103727.44;5017152;28;20152;-71
2022/01/18 02:27:40;;;;;;;56.42;11.20;;;;;;;7.01;100.00;103732.22;5017346;28;20053;-71
2022/01/18 02:30:06;;;;;;;74.47;11.48;;;;;;;7.02;100.00;103726.59;5016479;28;20132;-71
2022/01/18 02:32:31;;;;;;;52.97;10.52;;;;;;;7.02;100.00;103725.78;5014888;28;20519;-71
2022/01/18 02:34:57;;;;;;;59.55;10.23;;;;;;;6.99;100.00;103739.75;5016380;28;20037;-71
2022/01/18 02:37:22;;;;;;;48.83;10.43;;;;;;;6.96;100.00;103743.72;5016774;28;20053;-71
2022/01/18 02:39:48;;;;;;;54.42;10.73;;;;;;;6.85;100.00;103752.47;5015480;28;20033;-71
2022/01/18 02:42:16;;;;;;;60.72;10.68;;;;;;;6.87;100.00;103746.84;5010738;28;20064;-70
2022/01/18 02:44:42;;;;;;;69.93;12.32;;;;;;;6.84;100.00;103749.97;5034708;28;20555;-71
2022/01/18 02:47:07;;;;;;;61.25;10.88;;;;;;;6.88;100.00;103745.81;5018124;28;20567;-71
2022/01/18 02:49:33;;;;;;;64.43;11.80;;;;;;;6.89;100.00;103742.03;5028512;28;20040;-70
2022/01/18 02:52:00;;;;;;;60.17;10.52;;;;;;;6.92;100.00;103749.75;5016390;28;20511;-71
2022/01/18 02:54:26;;;;;;;67.95;11.98;;;;;;;6.84;100.00;103749.97;5014033;28;20056;-71
2022/01/18 02:56:58;;;;;;;73.72;12.25;;;;;;;6.84;100.00;103752.69;5014210;28;20037;-71
2022/01/18 02:59:47;;;;;;;71.50;12.93;;;;;;;6.82;100.00;103741.22;5014374;28;20144;-71
2022/01/18 03:05:03;;;;;;;64.00;12.07;;;;;;;6.79;100.00;103743.28;5035738;28;20041;-71
2022/01/18 03:07:28;;;;;;;80.03;12.82;;;;;;;6.82;100.00;103746.63;5035612;28;20792;-71
2022/01/18 03:09:53;;;;;;;67.22;13.75;;;;;;;6.73;100.00;103738.69;5035299;28;20117;-71
2022/01/18 03:12:19;;;;;;;68.25;13.35;;;;;;;6.77;100.00;103745.38;5034788;28;20351;-71
2022/01/18 03:14:44;;;;;;;67.00;14.98;;;;;;;6.83;100.00;103746.41;5034858;28;20033;-71
2022/01/18 03:17:10;;;;;;;74.25;14.95;;;;;;;6.77;100.00;103745.38;5033104;28;20298;-71
2022/01/18 03:19:35;;;;;;;66.15;14.60;;;;;;;6.75;100.00;103747.47;5035081;28;20045;-71
2022/01/18 03:22:03;;;;;;;71.13;14.95;;;;;;;6.74;100.00;103745.78;5033147;28;20052;-70
2022/01/18 03:29:38;;;;;;;73.50;18.23;;;;;;;6.67;100.00;103761.22;5034167;28;20501;-71
2022/01/18 03:32:04;;;;;;;73.70;18.55;;;;;;;6.68;100.00;103762.88;5033198;28;20056;-71
2022/01/18 03:34:29;;;;;;;88.07;18.08;;;;;;;6.71;100.00;103761.63;5034477;28;20542;-71
2022/01/18 03:36:55;;;;;;;106.95;18.73;;;;;;;6.52;100.00;103755.13;5025680;28;20037;-71
2022/01/18 03:39:20;;;;;;;90.18;19.08;;;;;;;6.59;100.00;103761.41;5029161;28;20041;-71
2022/01/18 03:41:53;;;;;;;101.20;20.50;;;;;;;6.49;100.00;103763.69;5014495;28;20426;-71
2022/01/18 03:44:22;;;;;;;84.95;20.50;;;;;;;6.54;100.00;103762.03;5015406;28;20042;-70
2022/01/18 03:46:47;;;;;;;100.38;22.63;;;;;;;6.51;100.00;103767.00;5015139;28;20045;-71
2022/01/18 03:49:13;;;;;;;84.20;20.13;;;;;;;6.51;100.00;103761.59;5020416;28;20402;-71
2022/01/18 03:51:38;;;;;;;88.75;20.85;;;;;;;6.54;100.00;103766.59;5034669;28;20033;-71
2022/01/18 03:54:04;;;;;;;92.95;23.10;;;;;;;6.51;100.00;103775.97;5034316;28;20724;-71
2022/01/18 03:56:29;;;;;;;93.88;22.35;;;;;;;6.61;100.00;103781.03;5034332;28;20025;-71
2022/01/18 03:58:55;;;;;;;80.65;22.17;;;;;;;6.62;100.00;103774.53;5032386;28;20029;-71
2022/01/18 04:01:20;;;;;;;81.00;20.27;;;;;;;6.57;100.00;103779.75;5032917;28;20060;-71
2022/01/18 04:03:45;;;;;;;82.05;22.33;;;;;;;6.64;100.00;103777.06;5018705;28;20057;-71
2022/01/18 04:06:11;;;;;;;68.18;21.73;;;;;;;6.64;100.00;103783.31;5014021;28;20044;-71
2022/01/18 04:08:36;;;;;;;81.03;22.00;;;;;;;6.63;100.00;103781.63;5014025;28;20068;-71
2022/01/18 04:11:02;;;;;;;93.70;23.02;;;;;;;6.61;100.00;103786.44;5012033;28;20421;-71
2022/01/18 04:13:27;;;;;;;99.10;23.10;;;;;;;6.68;100.00;103781.03;5014829;28;20548;-71
2022/01/18 04:15:52;;;;;;;79.45;22.25;;;;;;;6.57;100.00;103772.47;5014880;28;20045;-71
2022/01/18 04:18:28;;;;;;;93.63;23.45;;;;;;;6.62;100.00;103779.97;5014961;28;20057;-71
2022/01/18 04:28:56;;;;;;;95.97;24.38;;;;;;;6.79;100.00;103781.25;5013904;28;20045;-71
2022/01/18 04:31:22;;;;;;;72.50;22.03;;;;;;;6.78;100.00;103779.59;5014274;28;20052;-71
2022/01/18 04:33:48;;;;;;;91.65;23.08;;;;;;;6.69;100.00;103780.84;5011139;28;21066;-71
2022/01/18 04:36:14;;;;;;;88.95;21.65;;;;;;;6.67;100.00;103788.34;5011357;28;20044;-70
2022/01/18 04:38:40;;;;;;;90.18;23.73;;;;;;;6.68;100.00;103784.56;5012732;28;20037;-71
2022/01/18 04:41:10;;;;;;;88.55;22.75;;;;;;;6.64;100.00;103786.03;5013524;28;20052;-71
2022/01/18 04:48:47;;;;;;;85.60;21.92;;;;;;;6.54;100.00;103777.44;5014357;28;20567;-71
2022/01/18 04:51:12;;;;;;;90.88;22.50;;;;;;;6.55;100.00;103771.00;5031994;28;20393;-71
2022/01/18 04:53:41;;;;;;;96.53;21.52;;;;;;;6.62;100.00;103774.53;5034643;28;20273;-71
2022/01/18 04:56:14;;;;;;;97.65;23.55;;;;;;;6.52;100.00;103779.53;5045654;28;20354;-71
2022/01/18 04:58:39;;;;;;;94.57;22.90;;;;;;;6.61;100.00;103778.31;5057129;28;20084;-71
2022/01/18 05:01:07;;;;;;;85.32;22.20;;;;;;;6.66;100.00;103783.97;5057978;28;20052;-71
2022/01/18 05:03:32;;;;;;;81.80;24.33;;;;;;;6.61;100.00;103781.03;5041463;28;20488;-71
2022/01/18 05:06:01;;;;;;;92.28;24.55;;;;;;;6.63;100.00;103784.34;5035068;28;20036;-71
2022/01/18 05:08:27;;;;;;;105.32;24.27;;;;;;;6.64;100.00;103794.16;5035852;28;20421;-71
2022/01/18 05:10:56;;;;;;;93.00;23.38;;;;;;;6.63;100.00;103780.78;5037703;28;20090;-71
2022/01/18 05:19:01;;;;;;;95.55;22.65;;;;;;;6.48;100.00;103789.09;5034431;28;20052;-70
2022/01/18 05:24:16;;;;;;;100.90;24.48;;;;;;;6.67;100.00;103777.47;5017477;28;20064;-71
2022/01/18 05:26:42;;;;;;;110.35;26.48;;;;;;;6.52;100.00;103783.09;5034074;28;20374;-71
2022/01/18 05:29:07;;;;;;;96.53;24.30;;;;;;;6.54;100.00;103783.72;5033525;28;20316;-71
2022/01/18 05:31:32;;;;;;;109.03;24.52;;;;;;;6.44;100.00;103787.84;5033397;28;20296;-71
2022/01/18 05:33:58;;;;;;;117.05;25.67;;;;;;;6.46;100.00;103783.91;5034601;28;20582;-71
2022/01/18 05:36:23;;;;;;;92.32;25.05;;;;;;;6.50;100.00;103773.47;5036296;28;20128;-70
2022/01/18 05:38:49;;;;;;;115.28;25.10;;;;;;;6.62;100.00;103773.72;5034977;28;20118;-71
2022/01/18 05:41:14;;;;;;;119.30;25.45;;;;;;;6.46;100.00;103770.34;5033395;28;20086;-70
2022/01/18 05:43:40;;;;;;;103.88;23.77;;;;;;;6.49;100.00;103758.25;5033532;28;20480;-71
2022/01/18 05:46:05;;;;;;;107.47;23.92;;;;;;;6.53;100.00;103759.50;5031478;28;20465;-73
2022/01/18 05:48:31;;;;;;;109.05;23.40;;;;;;;6.50;100.00;103776.19;5033849;28;20519;-71
2022/01/18 05:51:00;;;;;;;104.28;23.65;;;;;;;6.45;100.00;103779.50;5025825;28;20029;-71
2022/01/18 05:53:38;;;;;;;105.15;24.83;;;;;;;6.46;100.00;103780.34;5025644;28;20045;-71
2022/01/18 05:56:04;;;;;;;119.47;24.92;;;;;;;6.50;100.00;103787.03;5016586;28;20128;-71
2022/01/18 05:58:30;;;;;;;119.32;26.17;;;;;;;6.47;100.00;103788.28;5013845;28;20086;-72
2022/01/18 06:00:55;;;;;;;99.22;25.83;;;;;;;6.52;100.00;103793.09;5011795;28;20049;-71
2022/01/18 06:03:35;;;;;;;118.72;26.90;;;;;;;6.50;100.00;103792.44;5013420;28;20064;-71
2022/01/18 06:08:45;;;;;;;133.40;26.40;;;;;;;6.42;100.00;103787.22;5026931;28;20450;-71
2022/01/18 06:11:11;;;;;;;107.40;25.08;;;;;;;6.45;100.00;103786.81;5028827;28;20107;-71
2022/01/18 06:13:36;;;;;;;106.85;23.17;;;;;;;6.37;100.00;103792.41;5030728;28;20063;-71
2022/01/18 06:16:02;;;;;;;114.43;24.13;;;;;;;6.44;100.00;103794.09;5035008;28;20033;-71
2022/01/18 06:18:28;;;;;;;92.78;24.75;;;;;;;6.53;100.00;103797.47;5016124;28;20542;-71
2022/01/18 06:20:53;;;;;;;113.25;23.85;;;;;;;6.43;100.00;103797.00;5035206;28;20061;-71
2022/01/18 06:23:20;;;;;;;91.30;23.58;;;;;;;6.44;100.00;103798.69;5034768;28;20045;-71
2022/01/18 06:25:45;;;;;;;101.72;22.17;;;;;;;6.45;100.00;103800.34;5019223;28;20042;-71
2022/01/18 06:28:12;;;;;;;91.60;24.33;;;;;;;6.36;100.00;103805.13;5016797;28;20052;-71
2022/01/18 06:30:37;;;;;;;100.22;22.75;;;;;;;6.50;100.00;103800.59;5053030;28;20043;-71
2022/01/18 06:33:03;;;;;;;100.63;22.08;;;;;;;6.35;100.00;103798.88;5050856;28;20045;-70
2022/01/18 06:35:28;;;;;;;90.65;23.15;;;;;;;6.39;100.00;103799.28;5054122;28;20430;-71
2022/01/18 06:37:54;;;;;;;100.90;23.58;;;;;;;6.34;100.00;103799.91;5050249;28;20037;-71
2022/01/18 06:40:19;;;;;;;118.43;25.67;;;;;;;6.45;100.00;103800.34;5053136;28;20056;-71
2022/01/18 06:42:44;;;;;;;99.95;24.42;;;;;;;6.39;100.00;103812.00;5050310;28;20044;-71
2022/01/18 06:45:10;;;;;;;124.68;26.90;;;;;;;6.38;100.00;103815.78;5053054;28;20163;-71
2022/01/18 06:47:37;;;;;;;117.53;28.45;;;;;;;6.37;100.00;103808.66;5053189;28;20079;-70
2022/01/18 06:50:04;;;;;;;121.45;27.00;;;;;;;6.38;100.00;103821.19;5047387;28;20102;-70
2022/01/18 06:52:30;;;;;;;117.82;24.48;;;;;;;6.43;100.00;103814.13;5049123;28;20431;-71
2022/01/18 06:54:55;;;;;;;118.43;25.95;;;;;;;6.34;100.00;103818.88;5053718;28;20044;-71
2022/01/18 06:57:21;;;;;;;108.22;24.20;;;;;;;6.24;100.00;103809.44;5053703;28;20036;-71
2022/01/18 06:59:46;;;;;;;94.53;20.85;;;;;;;6.32;100.00;103812.81;5051167;28;20327;-71
2022/01/18 07:02:11;;;;;;;98.90;24.30;;;;;;;6.27;100.00;103820.72;5053402;28;20063;-70
2022/01/18 07:04:37;;;;;;;87.72;20.73;;;;;;;6.25;100.00;103817.34;5053196;28;20281;-71
2022/01/18 07:07:03;;;;;;;91.03;19.73;;;;;;;6.37;100.00;103819.50;5052994;28;20339;-71
2022/01/18 07:09:29;;;;;;;87.63;21.60;;;;;;;6.25;100.00;103817.34;5047435;28;20146;-71
2022/01/18 07:11:56;;;;;;;88.47;19.08;;;;;;;6.31;100.00;103821.13;5053173;28;20044;-71
2022/01/18 07:14:23;;;;;;;89.35;21.55;;;;;;;6.38;100.00;103818.47;5052095;28;20129;-71
2022/01/18 07:16:49;;;;;;;80.18;18.20;;;;;;;6.31;100.00;103819.28;5047447;28;20155;-71
2022/01/18 07:19:14;;;;;;;94.63;18.35;;;;;;;6.28;100.00;103829.69;5052376;28;20448;-71
2022/01/18 07:21:40;;;;;;;88.30;17.00;;;;;;;6.19;100.00;103837.13;5047739;28;20461;-71
2022/01/18 07:24:16;;;;;;;61.83;15.63;;;;;;;6.28;100.00;103833.25;5052161;28;20082;-71
2022/01/18 07:26:42;;;;;;;77.40;16.85;;;;;;;6.31;100.00;103842.81;5047701;28;20101;-71
2022/01/18 07:29:07;;;;;;;67.38;15.45;;;;;;;6.28;100.00;103838.66;5052545;28;20139;-71
2022/01/18 07:31:33;;;;;;;68.43;15.40;;;;;;;6.45;100.00;103841.00;5052505;28;20097;-71
2022/01/18 07:33:58;;;;;;;68.22;16.33;;;;;;;6.43;100.00;103834.94;5049593;28;20113;-71
2022/01/18 07:36:24;;;;;;;67.03;15.63;;;;;;;6.42;100.00;103836.84;5051951;28;20029;-71
2022/01/18 07:38:49;;;;;;;57.80;14.38;;;;;;;6.47;100.00;103844.38;5053289;28;20044;-71
2022/01/18 07:41:15;;;;;;;60.75;14.40;;;;;;;6.43;100.00;103851.22;5043433;28;20045;-71
2022/01/18 07:43:41;;;;;;;61.90;14.13;;;;;;;6.33;100.00;103841.59;5052766;28;20040;-71
2022/01/18 07:46:06;;;;;;;64.63;14.50;;;;;;;6.48;100.00;103848.75;5053221;28;20393;-71
2022/01/18 07:48:32;;;;;;;55.05;12.98;;;;;;;6.42;100.00;103844.97;5050268;28;20400;-71
2022/01/18 07:50:58;;;;;;;61.03;13.70;;;;;;;6.39;100.00;103847.25;5052601;28;20060;-71
2022/01/18 07:53:25;;;;;;;51.92;14.10;;;;;;;6.41;100.00;103853.31;5053030;28;20033;-71
2022/01/18 07:55:51;;;;;;;62.15;14.43;;;;;;;6.37;100.00;103854.72;5052532;28;20143;-71
2022/01/18 07:58:17;;;;;;;51.95;13.75;;;;;;;6.51;100.00;103859.19;5048888;28;20074;-71
2022/01/18 08:00:43;;;;;;;54.33;13.63;;;;;;;6.61;100.00;103865.06;5051083;28;20526;-71
2022/01/18 08:03:09;;;;;;;71.40;14.40;;;;;;;6.64;100.00;103859.25;5047818;28;20420;-71
2022/01/18 08:05:34;;;;;;;50.83;12.30;;;;;;;6.77;100.00;103864.69;5050695;28;20429;-71
2022/01/18 08:08:00;;;;;;;56.38;13.07;;;;;;;6.64;100.00;103864.66;5051913;28;20040;-71
2022/01/18 08:10:30;;;;;;;51.40;12.43;;;;;;;6.62;100.00;103861.31;5051628;28;20091;-70
2022/01/18 08:13:01;;;;;;;40.38;10.75;;;;;;;6.58;100.00;103854.63;5052653;28;20040;-71
2022/01/18 08:15:36;;;;;;;40.22;9.98;;;;;;;6.57;100.00;103852.94;5052484;28;20362;-71
2022/01/18 08:18:01;;;;;;;37.35;10.82;;;;;;;6.53;100.00;103852.53;5052427;28;20051;-71
2022/01/18 08:20:27;;;;;;;41.80;10.52;;;;;;;6.57;100.00;103848.38;5052801;28;20037;-71
2022/01/18 08:22:52;;;;;;;42.30;11.18;;;;;;;6.38;100.00;103859.13;5052546;28;20052;-71
2022/01/18 08:25:18;;;;;;;40.15;9.93;;;;;;;6.51;100.00;103851.03;5053598;28;20045;-71
2022/01/18 08:27:45;;;;;;;42.42;11.85;;;;;;;6.56;100.00;103852.13;5053324;28;20048;-71
2022/01/18 08:30:12;;;;;;;46.90;11.32;;;;;;;6.45;100.00;103849.16;5052848;28;20078;-71
2022/01/18 08:32:38;;;;;;;31.42;10.73;;;;;;;6.51;100.00;103849.16;5050859;28;20614;-71
2022/01/18 08:35:05;;;;;;;32.10;9.82;;;;;;;6.68;100.00;103844.22;5051410;28;20048;-71
2022/01/18 08:37:30;;;;;;;36.60;10.98;;;;;;;6.62;100.00;103849.63;5052398;28;20047;-71
2022/01/18 08:39:56;;;;;;;43.00;11.60;;;;;;;6.72;100.00;103845.50;5053847;28;20040;-71
2022/01/18 08:42:21;;;;;;;37.58;10.68;;;;;;;6.54;100.00;103850.63;5025940;28;20296;-71
2022/01/18 08:44:47;;;;;;;31.98;10.93;;;;;;;6.54;100.00;103856.06;5013833;28;20513;-71
2022/01/18 08:47:14;;;;;;;31.73;10.57;;;;;;;6.70;100.00;103858.44;5011809;28;20418;-71
2022/01/18 08:49:39;;;;;;;47.08;11.10;;;;;;;6.41;100.00;103859.56;5011664;28;20100;-71
2022/01/18 08:52:05;;;;;;;44.08;11.20;;;;;;;6.47;100.00;103858.75;5011516;28;20049;-70
2022/01/18 08:54:31;;;;;;;44.85;12.40;;;;;;;6.52;100.00;103855.44;5011617;28;20037;-71
2022/01/18 08:56:58;;;;;;;44.15;12.13;;;;;;;6.43;100.00;103871.06;5012933;28;20383;-71
2022/01/18 08:59:24;;;;;;;47.83;12.40;;;;;;;6.53;100.00;103868.78;5023066;28;20037;-71
2022/01/18 09:01:50;;;;;;;42.70;11.80;;;;;;;6.55;100.00;103860.47;5030776;28;20465;-72
2022/01/18 09:04:15;;;;;;;48.03;13.18;;;;;;;6.64;100.00;103864.66;5031091;28;20544;-71
2022/01/18 09:06:41;;;;;;;37.60;12.13;;;;;;;6.42;100.00;103866.66;5032408;28;20064;-71
2022/01/18 09:09:08;;;;;;;41.58;12.38;;;;;;;6.53;100.00;103862.53;5032062;28;20448;-71
2022/01/18 09:11:34;;;;;;;44.70;13.27;;;;;;;6.73;100.00;103865.31;5030844;28;20077;-71
2022/01/18 09:13:59;;;;;;;39.20;11.52;;;;;;;6.90;100.00;103858.50;5032934;28;20049;-72
2022/01/18 09:16:25;;;;;;;52.03;12.88;;;;;;;6.90;100.00;103868.50;5031210;28;20095;-71
2022/01/18 09:18:50;;;;;;;58.25;15.32;;;;;;;6.88;100.00;103865.16;5032971;28;20048;-72
2022/01/18 09:21:16;;;;;;;56.80;15.07;;;;;;;6.79;100.00;103862.63;5032757;28;20056;-72
2022/01/18 09:23:42;;;;;;;46.30;14.02;;;;;;;6.76;100.00;103871.16;5032597;28;20451;-71
2022/01/18 09:26:08;;;;;;;60.25;13.25;;;;;;;6.78;100.00;103871.81;5032957;28;20037;-71
2022/01/18 09:28:34;;;;;;;40.22;12.10;;;;;;;7.02;100.00;103872.28;5033366;28;20128;-71
2022/01/18 09:31:00;;;;;;;39.95;12.80;;;;;;;7.02;100.00;103873.13;5031985;28;20515;-71
2022/01/18 09:33:26;;;;;;;45.80;13.98;;;;;;;6.77;100.00;103880.97;5031641;28;20037;-71
2022/01/18 09:35:52;;;;;;;47.58;15.90;;;;;;;6.69;100.00;103878.47;5034000;28;20521;-71
2022/01/18 09:38:17;;;;;;;63.88;17.02;;;;;;;6.64;100.00;103891.78;5031513;28;20048;-71
2022/01/18 09:40:45;;;;;;;73.78;18.98;;;;;;;6.62;100.00;103893.84;5032929;28;20037;-71
2022/01/18 09:43:13;;;;;;;65.65;16.88;;;;;;;6.67;100.00;103896.81;5032605;28;20676;-71
2022/01/18 09:45:41;;;;;;;55.85;17.60;;;;;;;6.60;100.00;103901.34;5032196;28;20579;-71
2022/01/18 09:48:09;;;;;;;54.08;15.63;;;;;;;6.65;100.00;103901.59;5031441;28;20098;-71
2022/01/18 09:50:36;;;;;;;51.10;16.33;;;;;;;6.63;100.00;103892.81;5019578;28;20069;-71
2022/01/18 09:53:06;;;;;;;52.13;15.05;;;;;;;6.49;100.00;103899.22;5015871;28;20041;-71
2022/01/18 09:55:33;;;;;;;50.17;15.52;;;;;;;6.44;100.00;103907.94;5015787;28;20512;-71
2022/01/18 09:57:59;;;;;;;57.30;14.70;;;;;;;6.46;100.00;103905.06;5015583;28;20552;-71
2022/01/18 10:00:29;;;;;;;50.25;14.18;;;;;;;6.50;100.00;103900.91;5034706;28;20606;-70
2022/01/18 10:02:55;;;;;;;47.42;14.35;;;;;;;6.47;100.00;103909.44;5036174;28;20054;-71
2022/01/18 10:05:20;;;;;;;51.30;13.60;;;;;;;6.53;100.00;103908.63;5035941;28;20044;-71
2022/01/18 10:07:55;;;;;;;46.38;13.82;;;;;;;6.48;100.00;103906.50;5036323;28;20044;-72
2022/01/18 10:10:20;;;;;;;37.50;13.48;;;;;;;6.69;100.00;103902.88;5045029;28;20508;-71
2022/01/18 10:12:55;;;;;;;38.83;11.68;;;;;;;6.90;100.00;103901.06;5049063;28;20269;-71
2022/01/18 10:15:21;;;;;;;44.85;12.90;;;;;;;6.74;100.00;103907.66;5052116;28;20028;-71
2022/01/18 10:17:46;;;;;;;51.67;14.60;;;;;;;6.57;100.00;103902.63;5053945;28;20036;-70
2022/01/18 10:20:19;;;;;;;53.55;14.35;;;;;;;6.68;100.00;103909.31;5054736;28;20056;-71
2022/01/18 10:22:48;;;;;;;42.53;12.90;;;;;;;6.78;100.00;103903.53;5052221;28;20036;-71
2022/01/18 10:25:21;;;;;;;54.00;14.05;;;;;;;6.63;100.00;103911.78;5053709;28;20140;-71
2022/01/18 10:27:49;;;;;;;34.35;11.25;;;;;;;6.70;100.00;103912.66;5052542;28;20037;-71
2022/01/18 10:30:22;;;;;;;39.63;12.48;;;;;;;6.52;100.00;103909.69;5050659;28;20036;-71
2022/01/18 10:33:01;;;;;;;41.97;13.32;;;;;;;6.50;100.00;103895.47;5051415;28;20046;-72
2022/01/18 10:35:26;;;;;;;53.90;15.02;;;;;;;6.54;100.00;103902.16;5058681;28;20363;-71
2022/01/18 10:37:51;;;;;;;47.83;14.63;;;;;;;6.67;100.00;103901.41;5056339;28;20064;-71
2022/01/18 10:40:18;;;;;;;61.20;17.23;;;;;;;6.63;100.00;103906.34;5056928;28;20055;-72
2022/01/18 10:42:48;;;;;;;62.25;17.05;;;;;;;7.02;100.00;103904.84;5022613;28;20063;-71
2022/01/18 10:45:23;;;;;;;64.90;18.30;;;;;;;6.70;100.00;103895.56;5027265;28;20044;-71
2022/01/18 10:48:12;;;;;;;61.67;17.90;;;;;;;7.09;100.00;103902.97;5058816;28;20051;-71
2022/01/18 10:50:42;;;;;;;61.88;18.15;;;;;;;7.07;100.00;103899.66;5047532;28;20040;-71
2022/01/18 10:53:12;;;;;;;58.35;17.17;;;;;;;6.83;100.00;103894.75;5058001;28;20055;-71
2022/01/18 10:55:38;;;;;;;77.07;20.92;;;;;;;6.65;100.00;103893.44;5056989;28;20048;-71
2022/01/18 10:58:15;;;;;;;67.47;20.60;;;;;;;6.70;100.00;103896.41;5053026;28;20508;-71
2022/01/18 11:00:41;;;;;;;56.65;18.00;;;;;;;6.72;100.00;103888.91;5051928;28;20062;-71
2022/01/18 11:03:07;;;;;;;82.97;18.60;;;;;;;6.58;100.00;103893.44;5056119;28;20429;-71
2022/01/18 11:05:35;;;;;;;60.78;18.17;;;;;;;6.87;100.00;103896.06;5055962;28;20040;-71
2022/01/18 11:08:03;;;;;;;58.17;17.92;;;;;;;6.92;100.00;103888.13;5053876;28;20087;-72
2022/01/18 11:10:34;;;;;;;72.32;20.40;;;;;;;6.91;100.00;103889.16;5056889;28;20338;-71
2022/01/18 11:13:08;;;;;;;77.65;20.60;;;;;;;7.09;100.00;103889.41;5054208;28;20047;-71
2022/01/18 11:15:40;;;;;;;65.13;18.77;;;;;;;7.01;100.00;103889.59;5054958;28;20238;-71
2022/01/18 11:18:14;;;;;;;64.60;19.77;;;;;;;6.98;100.00;103884.56;5054946;28;20048;-71
2022/01/18 11:20:45;;;;;;;66.97;19.98;;;;;;;6.96;100.00;103878.53;5054420;28;20744;-72
2022/01/18 11:23:12;;;;;;;76.82;22.42;;;;;;;6.94;100.00;103881.44;5054722;28;20051;-71
2022/01/18 11:25:38;;;;;;;81.13;23.08;;;;;;;6.80;100.00;103879.72;5054689;28;20047;-72
2022/01/18 11:28:06;;;;;;;92.53;25.80;;;;;;;6.79;100.00;103878.91;5053545;28;20564;-72
2022/01/18 11:30:34;;;;;;;73.30;23.02;;;;;;;6.69;100.00;103878.47;5054189;28;20063;-71
2022/01/18 11:33:03;;;;;;;74.03;20.10;;;;;;;6.89;100.00;103877.66;5053128;28;20033;-71
2022/01/18 11:35:37;;;;;;;81.10;24.60;;;;;;;6.84;100.00;103866.63;5053877;28;20036;-72
2022/01/18 11:38:34;;;;;;;78.40;22.40;;;;;;;7.06;100.00;103873.53;5051890;28;20040;-72
2022/01/18 11:41:02;;;;;;;84.32;22.48;;;;;;;7.18;100.00;103866.47;5048283;28;20144;-72
2022/01/18 11:43:39;;;;;;;70.78;21.67;;;;;;;7.42;100.00;103869.66;5014271;28;20052;-71
2022/01/18 11:46:24;;;;;;;73.53;21.13;;;;;;;7.54;100.00;103862.53;5013894;28;20034;-72
2022/01/18 11:49:05;;;;;;;57.78;17.60;;;;;;;7.43;100.00;103868.59;5015687;28;20052;-71
2022/01/18 11:51:53;;;;;;;71.38;21.58;;;;;;;7.22;100.00;103862.31;5033275;28;20442;-71
2022/01/18 11:54:41;;;;;;;58.92;20.52;;;;;;;7.25;100.00;103867.31;5034561;28;20044;-71
2022/01/18 11:57:21;;;;;;;57.00;20.45;;;;;;;7.26;100.00;103863.56;5034514;28;20435;-71
2022/01/18 11:59:48;;;;;;;60.88;19.45;;;;;;;7.43;100.00;103857.72;5019859;28;20525;-72
2022/01/18 12:02:27;;;;;;;59.22;20.13;;;;;;;7.42;100.00;103861.50;5014426;28;20851;-71
2022/01/18 12:04:56;;;;;;;43.42;16.13;;;;;;;7.47;100.00;103854.38;5014556;28;20098;-71
2022/01/18 12:07:33;;;;;;;43.55;15.25;;;;;;;7.51;100.00;103854.81;5014364;28;20445;-72
2022/01/18 12:10:00;;;;;;;39.47;16.33;;;;;;;7.55;100.00;103856.06;5049188;28;20469;-71
2022/01/18 12:12:41;;;;;;;44.47;17.48;;;;;;;7.51;100.00;103857.53;5051233;28;20048;-71
2022/01/18 12:15:15;;;;;;;43.92;17.05;;;;;;;7.52;100.00;103851.03;5048917;28;20537;-71
2022/01/18 12:17:54;;;;;;;52.30;18.40;;;;;;;7.58;100.00;103861.06;5048721;28;20622;-71
2022/01/18 12:20:35;;;;;;;51.83;17.35;;;;;;;7.32;100.00;103861.06;5049261;28;20071;-72
2022/01/18 12:23:01;;;;;;;49.47;15.90;;;;;;;7.10;100.00;103861.25;5049648;28;20040;-71